sensor_id;sensor_type;location;lat;lon;timestamp;P1;durP1;ratioP1;P2;durP2;ratioP2
14326;SDS011;7247;53.330;-1.180;2023-03-19T00:00:21;7.53;;;2.23;;
14326;SDS011;7247;53.330;-1.180;2023-03-19T00:02:47;7.23;;;2.10;;
14326;SDS011;7247;53.330;-1.180;2023-03-19T00:05:16;10.97;;;2.40;;
14326;SDS011;7247;53.330;-1.180;2023-03-19T00:07:44;7.50;;;1.83;;
14326;SDS011;7247;53.330;-1.180;2023-03-19T00:10:10;8.90;;;2.20;;
14326;SDS011;7247;53.330;-1.180;2023-03-19T00:12:37;10.20;;;2.10;;
14326;SDS011;7247;53.330;-1.180;2023-03-19T00:15:04;11.10;;;2.33;;
14326;SDS011;7247;53.330;-1.180;2023-03-19T00:17:31;10.30;;;2.10;;
14326;SDS011;7247;53.330;-1.180;2023-03-19T00:19:58;8.53;;;2.30;;
14326;SDS011;7247;53.330;-1.180;2023-03-19T00:22:24;12.53;;;2.40;;
14326;SDS011;7247;53.330;-1.180;2023-03-19T00:24:52;8.30;;;2.20;;
14326;SDS011;7247;53.330;-1.180;2023-03-19T00:27:18;8.67;;;2.00;;
14326;SDS011;7247;53.330;-1.180;2023-03-19T00:29:45;7.27;;;1.73;;
14326;SDS011;7247;53.330;-1.180;2023-03-19T00:32:11;12.10;;;2.13;;
14326;SDS011;7247;53.330;-1.180;2023-03-19T00:34:38;7.90;;;1.93;;
14326;SDS011;7247;53.330;-1.180;2023-03-19T00:37:05;7.47;;;1.87;;
14326;SDS011;7247;53.330;-1.180;2023-03-19T00:39:32;8.87;;;2.70;;
14326;SDS011;7247;53.330;-1.180;2023-03-19T00:42:00;9.90;;;2.30;;
14326;SDS011;7247;53.330;-1.180;2023-03-19T00:44:26;8.23;;;2.30;;
14326;SDS011;7247;53.330;-1.180;2023-03-19T00:46:53;12.63;;;2.50;;
14326;SDS011;7247;53.330;-1.180;2023-03-19T00:49:19;8.37;;;1.97;;
14326;SDS011;7247;53.330;-1.180;2023-03-19T00:51:46;10.07;;;2.00;;
14326;SDS011;7247;53.330;-1.180;2023-03-19T00:54:12;13.30;;;2.57;;
14326;SDS011;7247;53.330;-1.180;2023-03-19T00:56:39;7.90;;;1.97;;
14326;SDS011;7247;53.330;-1.180;2023-03-19T00:59:07;9.77;;;2.07;;
14326;SDS011;7247;53.330;-1.180;2023-03-19T01:01:33;10.37;;;2.50;;
14326;SDS011;7247;53.330;-1.180;2023-03-19T01:03:59;10.33;;;2.23;;
14326;SDS011;7247;53.330;-1.180;2023-03-19T01:06:26;9.70;;;1.83;;
14326;SDS011;7247;53.330;-1.180;2023-03-19T01:08:52;12.47;;;3.17;;
14326;SDS011;7247;53.330;-1.180;2023-03-19T01:11:19;13.20;;;2.40;;
14326;SDS011;7247;53.330;-1.180;2023-03-19T01:13:45;6.13;;;2.00;;
14326;SDS011;7247;53.330;-1.180;2023-03-19T01:16:13;13.20;;;2.40;;
14326;SDS011;7247;53.330;-1.180;2023-03-19T01:18:40;8.37;;;2.20;;
14326;SDS011;7247;53.330;-1.180;2023-03-19T01:21:06;9.27;;;2.37;;
14326;SDS011;7247;53.330;-1.180;2023-03-19T01:23:33;11.43;;;2.20;;
14326;SDS011;7247;53.330;-1.180;2023-03-19T01:25:59;16.00;;;2.43;;
14326;SDS011;7247;53.330;-1.180;2023-03-19T01:28:26;15.30;;;2.67;;
14326;SDS011;7247;53.330;-1.180;2023-03-19T01:30:52;9.63;;;2.20;;
14326;SDS011;7247;53.330;-1.180;2023-03-19T01:33:20;12.47;;;2.50;;
14326;SDS011;7247;53.330;-1.180;2023-03-19T01:35:46;12.07;;;2.50;;
14326;SDS011;7247;53.330;-1.180;2023-03-19T01:38:13;12.90;;;2.40;;
14326;SDS011;7247;53.330;-1.180;2023-03-19T01:40:42;10.10;;;2.43;;
14326;SDS011;7247;53.330;-1.180;2023-03-19T01:43:13;10.53;;;2.30;;
14326;SDS011;7247;53.330;-1.180;2023-03-19T01:45:40;13.23;;;2.00;;
14326;SDS011;7247;53.330;-1.180;2023-03-19T01:48:07;8.93;;;2.20;;
14326;SDS011;7247;53.330;-1.180;2023-03-19T01:50:39;10.10;;;2.23;;
14326;SDS011;7247;53.330;-1.180;2023-03-19T01:53:06;11.73;;;2.30;;
14326;SDS011;7247;53.330;-1.180;2023-03-19T01:55:33;7.23;;;2.13;;
14326;SDS011;7247;53.330;-1.180;2023-03-19T01:58:00;5.23;;;1.50;;
14326;SDS011;7247;53.330;-1.180;2023-03-19T02:00:26;7.53;;;1.90;;
14326;SDS011;7247;53.330;-1.180;2023-03-19T02:02:54;12.33;;;2.37;;
14326;SDS011;7247;53.330;-1.180;2023-03-19T02:05:21;8.67;;;2.00;;
14326;SDS011;7247;53.330;-1.180;2023-03-19T02:07:52;12.70;;;2.23;;
14326;SDS011;7247;53.330;-1.180;2023-03-19T02:10:20;10.87;;;2.53;;
14326;SDS011;7247;53.330;-1.180;2023-03-19T02:12:47;9.53;;;2.03;;
14326;SDS011;7247;53.330;-1.180;2023-03-19T02:15:13;9.90;;;1.93;;
14326;SDS011;7247;53.330;-1.180;2023-03-19T02:17:40;9.10;;;2.00;;
14326;SDS011;7247;53.330;-1.180;2023-03-19T02:20:09;6.27;;;1.53;;
14326;SDS011;7247;53.330;-1.180;2023-03-19T02:22:37;12.17;;;2.13;;
14326;SDS011;7247;53.330;-1.180;2023-03-19T02:25:08;4.67;;;1.80;;
14326;SDS011;7247;53.330;-1.180;2023-03-19T02:27:37;8.70;;;2.13;;
14326;SDS011;7247;53.330;-1.180;2023-03-19T02:30:16;10.63;;;2.20;;
14326;SDS011;7247;53.330;-1.180;2023-03-19T02:32:42;10.27;;;1.90;;
14326;SDS011;7247;53.330;-1.180;2023-03-19T02:35:09;8.90;;;2.30;;
14326;SDS011;7247;53.330;-1.180;2023-03-19T02:37:36;10.63;;;1.90;;
14326;SDS011;7247;53.330;-1.180;2023-03-19T02:40:03;9.70;;;2.07;;
14326;SDS011;7247;53.330;-1.180;2023-03-19T02:42:32;9.50;;;2.40;;
14326;SDS011;7247;53.330;-1.180;2023-03-19T02:45:00;12.57;;;2.20;;
14326;SDS011;7247;53.330;-1.180;2023-03-19T02:47:26;9.80;;;2.10;;
14326;SDS011;7247;53.330;-1.180;2023-03-19T02:49:53;11.37;;;2.47;;
14326;SDS011;7247;53.330;-1.180;2023-03-19T02:52:20;7.70;;;1.97;;
14326;SDS011;7247;53.330;-1.180;2023-03-19T02:54:46;13.17;;;2.60;;
14326;SDS011;7247;53.330;-1.180;2023-03-19T02:57:13;7.90;;;1.90;;
14326;SDS011;7247;53.330;-1.180;2023-03-19T02:59:39;11.50;;;2.20;;
14326;SDS011;7247;53.330;-1.180;2023-03-19T03:02:07;8.20;;;2.00;;
14326;SDS011;7247;53.330;-1.180;2023-03-19T03:04:34;9.43;;;2.20;;
14326;SDS011;7247;53.330;-1.180;2023-03-19T03:07:01;10.97;;;2.17;;
14326;SDS011;7247;53.330;-1.180;2023-03-19T03:09:27;10.67;;;2.60;;
14326;SDS011;7247;53.330;-1.180;2023-03-19T03:11:55;8.67;;;2.33;;
14326;SDS011;7247;53.330;-1.180;2023-03-19T03:14:21;10.17;;;2.13;;
14326;SDS011;7247;53.330;-1.180;2023-03-19T03:16:48;9.13;;;2.23;;
14326;SDS011;7247;53.330;-1.180;2023-03-19T03:19:16;11.00;;;2.40;;
14326;SDS011;7247;53.330;-1.180;2023-03-19T03:21:43;13.20;;;2.40;;
14326;SDS011;7247;53.330;-1.180;2023-03-19T03:24:09;7.03;;;1.80;;
14326;SDS011;7247;53.330;-1.180;2023-03-19T03:26:36;8.97;;;2.27;;
14326;SDS011;7247;53.330;-1.180;2023-03-19T03:29:03;8.67;;;1.80;;
14326;SDS011;7247;53.330;-1.180;2023-03-19T03:31:29;11.13;;;2.50;;
14326;SDS011;7247;53.330;-1.180;2023-03-19T03:33:56;12.53;;;2.20;;
14326;SDS011;7247;53.330;-1.180;2023-03-19T03:36:24;7.40;;;2.00;;
14326;SDS011;7247;53.330;-1.180;2023-03-19T03:38:51;9.37;;;2.40;;
14326;SDS011;7247;53.330;-1.180;2023-03-19T03:41:17;7.30;;;2.60;;
14326;SDS011;7247;53.330;-1.180;2023-03-19T03:43:44;8.60;;;2.10;;
14326;SDS011;7247;53.330;-1.180;2023-03-19T03:46:10;8.57;;;2.17;;
14326;SDS011;7247;53.330;-1.180;2023-03-19T03:48:37;10.63;;;2.80;;
14326;SDS011;7247;53.330;-1.180;2023-03-19T03:51:04;6.77;;;2.53;;
14326;SDS011;7247;53.330;-1.180;2023-03-19T03:53:32;10.33;;;2.10;;
14326;SDS011;7247;53.330;-1.180;2023-03-19T03:55:58;14.23;;;2.60;;
14326;SDS011;7247;53.330;-1.180;2023-03-19T03:58:25;9.77;;;2.50;;
14326;SDS011;7247;53.330;-1.180;2023-03-19T04:00:52;14.40;;;2.87;;
14326;SDS011;7247;53.330;-1.180;2023-03-19T04:03:18;10.80;;;2.43;;
14326;SDS011;7247;53.330;-1.180;2023-03-19T04:05:45;15.00;;;2.70;;
14326;SDS011;7247;53.330;-1.180;2023-03-19T04:08:11;10.30;;;3.00;;
14326;SDS011;7247;53.330;-1.180;2023-03-19T04:10:39;6.83;;;2.20;;
14326;SDS011;7247;53.330;-1.180;2023-03-19T04:13:06;10.50;;;2.83;;
14326;SDS011;7247;53.330;-1.180;2023-03-19T04:15:32;11.37;;;2.83;;
14326;SDS011;7247;53.330;-1.180;2023-03-19T04:17:59;8.83;;;2.33;;
14326;SDS011;7247;53.330;-1.180;2023-03-19T04:20:25;12.57;;;2.90;;
14326;SDS011;7247;53.330;-1.180;2023-03-19T04:22:52;8.33;;;2.03;;
14326;SDS011;7247;53.330;-1.180;2023-03-19T04:25:18;12.27;;;2.10;;
14326;SDS011;7247;53.330;-1.180;2023-03-19T04:27:46;11.13;;;2.57;;
14326;SDS011;7247;53.330;-1.180;2023-03-19T04:30:13;10.90;;;2.30;;
14326;SDS011;7247;53.330;-1.180;2023-03-19T04:32:39;10.60;;;2.63;;
14326;SDS011;7247;53.330;-1.180;2023-03-19T04:35:08;7.00;;;2.03;;
14326;SDS011;7247;53.330;-1.180;2023-03-19T04:37:35;6.10;;;2.00;;
14326;SDS011;7247;53.330;-1.180;2023-03-19T04:40:01;8.63;;;2.47;;
14326;SDS011;7247;53.330;-1.180;2023-03-19T04:42:28;5.73;;;1.90;;
14326;SDS011;7247;53.330;-1.180;2023-03-19T04:44:56;5.43;;;2.00;;
14326;SDS011;7247;53.330;-1.180;2023-03-19T04:47:22;8.50;;;2.50;;
14326;SDS011;7247;53.330;-1.180;2023-03-19T04:49:49;6.70;;;2.30;;
14326;SDS011;7247;53.330;-1.180;2023-03-19T04:52:15;7.97;;;2.30;;
14326;SDS011;7247;53.330;-1.180;2023-03-19T04:54:41;5.13;;;1.87;;
14326;SDS011;7247;53.330;-1.180;2023-03-19T04:57:08;7.83;;;2.80;;
14326;SDS011;7247;53.330;-1.180;2023-03-19T04:59:34;6.70;;;2.03;;
14326;SDS011;7247;53.330;-1.180;2023-03-19T05:02:02;7.63;;;1.83;;
14326;SDS011;7247;53.330;-1.180;2023-03-19T05:04:29;6.23;;;1.90;;
14326;SDS011;7247;53.330;-1.180;2023-03-19T05:06:55;8.60;;;2.33;;
14326;SDS011;7247;53.330;-1.180;2023-03-19T05:09:22;5.93;;;2.13;;
14326;SDS011;7247;53.330;-1.180;2023-03-19T05:11:48;9.03;;;2.10;;
14326;SDS011;7247;53.330;-1.180;2023-03-19T05:14:15;9.27;;;1.90;;
14326;SDS011;7247;53.330;-1.180;2023-03-19T05:16:42;8.13;;;2.23;;
14326;SDS011;7247;53.330;-1.180;2023-03-19T05:19:10;6.03;;;2.00;;
14326;SDS011;7247;53.330;-1.180;2023-03-19T05:21:36;5.83;;;2.10;;
14326;SDS011;7247;53.330;-1.180;2023-03-19T05:24:03;10.93;;;2.13;;
14326;SDS011;7247;53.330;-1.180;2023-03-19T05:26:29;7.83;;;1.90;;
14326;SDS011;7247;53.330;-1.180;2023-03-19T05:28:56;10.10;;;2.63;;
14326;SDS011;7247;53.330;-1.180;2023-03-19T05:31:22;5.27;;;2.20;;
14326;SDS011;7247;53.330;-1.180;2023-03-19T05:33:49;6.93;;;2.13;;
14326;SDS011;7247;53.330;-1.180;2023-03-19T05:36:17;7.80;;;2.23;;
14326;SDS011;7247;53.330;-1.180;2023-03-19T05:38:43;7.00;;;2.53;;
14326;SDS011;7247;53.330;-1.180;2023-03-19T05:41:09;7.73;;;2.17;;
14326;SDS011;7247;53.330;-1.180;2023-03-19T05:43:36;8.37;;;2.10;;
14326;SDS011;7247;53.330;-1.180;2023-03-19T05:46:02;9.03;;;2.73;;
14326;SDS011;7247;53.330;-1.180;2023-03-19T05:48:29;7.53;;;2.30;;
14326;SDS011;7247;53.330;-1.180;2023-03-19T05:50:56;7.90;;;2.27;;
14326;SDS011;7247;53.330;-1.180;2023-03-19T05:53:24;11.20;;;2.13;;
14326;SDS011;7247;53.330;-1.180;2023-03-19T05:55:51;7.13;;;2.33;;
14326;SDS011;7247;53.330;-1.180;2023-03-19T05:58:17;5.17;;;1.77;;
14326;SDS011;7247;53.330;-1.180;2023-03-19T06:00:44;5.73;;;1.97;;
14326;SDS011;7247;53.330;-1.180;2023-03-19T06:03:10;5.50;;;1.87;;
14326;SDS011;7247;53.330;-1.180;2023-03-19T06:05:37;7.00;;;2.17;;
14326;SDS011;7247;53.330;-1.180;2023-03-19T06:08:03;8.33;;;2.23;;
14326;SDS011;7247;53.330;-1.180;2023-03-19T06:10:32;10.33;;;2.37;;
14326;SDS011;7247;53.330;-1.180;2023-03-19T06:12:59;9.07;;;2.10;;
14326;SDS011;7247;53.330;-1.180;2023-03-19T06:15:25;7.97;;;2.23;;
14326;SDS011;7247;53.330;-1.180;2023-03-19T06:17:52;7.13;;;2.73;;
14326;SDS011;7247;53.330;-1.180;2023-03-19T06:20:18;9.97;;;2.50;;
14326;SDS011;7247;53.330;-1.180;2023-03-19T06:22:44;10.60;;;2.03;;
14326;SDS011;7247;53.330;-1.180;2023-03-19T06:25:11;8.87;;;1.97;;
14326;SDS011;7247;53.330;-1.180;2023-03-19T06:27:38;6.83;;;2.63;;
14326;SDS011;7247;53.330;-1.180;2023-03-19T06:30:05;9.30;;;2.20;;
14326;SDS011;7247;53.330;-1.180;2023-03-19T06:32:33;6.03;;;2.13;;
14326;SDS011;7247;53.330;-1.180;2023-03-19T06:35:00;6.13;;;2.13;;
14326;SDS011;7247;53.330;-1.180;2023-03-19T06:37:26;7.37;;;2.10;;
14326;SDS011;7247;53.330;-1.180;2023-03-19T06:39:52;7.50;;;2.30;;
14326;SDS011;7247;53.330;-1.180;2023-03-19T06:42:19;8.87;;;2.17;;
14326;SDS011;7247;53.330;-1.180;2023-03-19T06:44:47;6.77;;;1.97;;
14326;SDS011;7247;53.330;-1.180;2023-03-19T06:47:14;6.03;;;1.90;;
14326;SDS011;7247;53.330;-1.180;2023-03-19T06:49:40;7.30;;;2.27;;
14326;SDS011;7247;53.330;-1.180;2023-03-19T06:52:06;4.93;;;1.80;;
14326;SDS011;7247;53.330;-1.180;2023-03-19T06:54:33;7.67;;;2.10;;
14326;SDS011;7247;53.330;-1.180;2023-03-19T06:56:59;5.67;;;1.93;;
14326;SDS011;7247;53.330;-1.180;2023-03-19T06:59:26;8.03;;;2.10;;
14326;SDS011;7247;53.330;-1.180;2023-03-19T07:01:53;7.53;;;2.20;;
14326;SDS011;7247;53.330;-1.180;2023-03-19T07:04:20;10.03;;;3.17;;
14326;SDS011;7247;53.330;-1.180;2023-03-19T07:06:47;7.73;;;2.07;;
14326;SDS011;7247;53.330;-1.180;2023-03-19T07:09:13;7.57;;;2.20;;
14326;SDS011;7247;53.330;-1.180;2023-03-19T07:11:40;5.97;;;2.40;;
14326;SDS011;7247;53.330;-1.180;2023-03-19T07:14:06;6.67;;;2.10;;
14326;SDS011;7247;53.330;-1.180;2023-03-19T07:16:32;9.97;;;2.57;;
14326;SDS011;7247;53.330;-1.180;2023-03-19T07:19:00;5.67;;;2.10;;
14326;SDS011;7247;53.330;-1.180;2023-03-19T07:21:27;5.97;;;1.93;;
14326;SDS011;7247;53.330;-1.180;2023-03-19T07:23:54;4.60;;;2.00;;
14326;SDS011;7247;53.330;-1.180;2023-03-19T07:26:21;9.37;;;2.50;;
14326;SDS011;7247;53.330;-1.180;2023-03-19T07:28:47;8.60;;;1.97;;
14326;SDS011;7247;53.330;-1.180;2023-03-19T07:31:13;9.13;;;2.50;;
14326;SDS011;7247;53.330;-1.180;2023-03-19T07:33:40;8.43;;;2.13;;
14326;SDS011;7247;53.330;-1.180;2023-03-19T07:36:08;7.83;;;2.50;;
14326;SDS011;7247;53.330;-1.180;2023-03-19T07:38:35;10.07;;;2.37;;
14326;SDS011;7247;53.330;-1.180;2023-03-19T07:41:01;5.50;;;2.07;;
14326;SDS011;7247;53.330;-1.180;2023-03-19T07:43:28;4.47;;;2.10;;
14326;SDS011;7247;53.330;-1.180;2023-03-19T07:45:54;6.30;;;2.30;;
14326;SDS011;7247;53.330;-1.180;2023-03-19T07:48:21;6.90;;;2.37;;
14326;SDS011;7247;53.330;-1.180;2023-03-19T07:50:48;6.60;;;2.10;;
14326;SDS011;7247;53.330;-1.180;2023-03-19T07:53:16;7.67;;;2.20;;
14326;SDS011;7247;53.330;-1.180;2023-03-19T07:55:42;7.17;;;1.77;;
14326;SDS011;7247;53.330;-1.180;2023-03-19T07:58:09;7.60;;;2.27;;
14326;SDS011;7247;53.330;-1.180;2023-03-19T08:00:35;9.30;;;2.20;;
14326;SDS011;7247;53.330;-1.180;2023-03-19T08:03:02;8.60;;;2.43;;
14326;SDS011;7247;53.330;-1.180;2023-03-19T08:05:28;6.03;;;2.53;;
14326;SDS011;7247;53.330;-1.180;2023-03-19T08:07:54;6.47;;;2.33;;
14326;SDS011;7247;53.330;-1.180;2023-03-19T08:10:22;9.47;;;2.07;;
14326;SDS011;7247;53.330;-1.180;2023-03-19T08:12:48;8.67;;;2.20;;
14326;SDS011;7247;53.330;-1.180;2023-03-19T08:15:15;9.10;;;2.10;;
14326;SDS011;7247;53.330;-1.180;2023-03-19T08:17:41;7.00;;;2.07;;
14326;SDS011;7247;53.330;-1.180;2023-03-19T08:20:09;8.93;;;2.07;;
14326;SDS011;7247;53.330;-1.180;2023-03-19T08:22:35;5.17;;;2.10;;
14326;SDS011;7247;53.330;-1.180;2023-03-19T08:25:02;7.90;;;1.83;;
14326;SDS011;7247;53.330;-1.180;2023-03-19T08:27:30;5.93;;;1.90;;
14326;SDS011;7247;53.330;-1.180;2023-03-19T08:29:59;7.63;;;2.20;;
14326;SDS011;7247;53.330;-1.180;2023-03-19T08:32:26;6.70;;;2.00;;
14326;SDS011;7247;53.330;-1.180;2023-03-19T08:34:52;6.60;;;2.03;;
14326;SDS011;7247;53.330;-1.180;2023-03-19T08:37:18;6.53;;;2.27;;
14326;SDS011;7247;53.330;-1.180;2023-03-19T08:39:45;5.67;;;1.60;;
14326;SDS011;7247;53.330;-1.180;2023-03-19T08:42:11;5.00;;;1.73;;
14326;SDS011;7247;53.330;-1.180;2023-03-19T08:44:39;5.97;;;2.00;;
14326;SDS011;7247;53.330;-1.180;2023-03-19T08:47:05;6.57;;;1.87;;
14326;SDS011;7247;53.330;-1.180;2023-03-19T08:49:32;5.83;;;1.53;;
14326;SDS011;7247;53.330;-1.180;2023-03-19T08:51:58;3.50;;;1.60;;
14326;SDS011;7247;53.330;-1.180;2023-03-19T08:54:25;5.83;;;1.70;;
14326;SDS011;7247;53.330;-1.180;2023-03-19T08:56:51;6.40;;;1.67;;
14326;SDS011;7247;53.330;-1.180;2023-03-19T08:59:17;5.33;;;1.47;;
14326;SDS011;7247;53.330;-1.180;2023-03-19T09:01:45;4.80;;;1.87;;
14326;SDS011;7247;53.330;-1.180;2023-03-19T09:04:15;5.27;;;1.60;;
14326;SDS011;7247;53.330;-1.180;2023-03-19T09:06:41;5.73;;;1.67;;
14326;SDS011;7247;53.330;-1.180;2023-03-19T09:09:09;6.70;;;1.87;;
14326;SDS011;7247;53.330;-1.180;2023-03-19T09:11:35;6.37;;;1.50;;
14326;SDS011;7247;53.330;-1.180;2023-03-19T09:14:01;6.17;;;1.60;;
14326;SDS011;7247;53.330;-1.180;2023-03-19T09:16:28;6.77;;;1.77;;
14326;SDS011;7247;53.330;-1.180;2023-03-19T09:18:56;5.37;;;1.50;;
14326;SDS011;7247;53.330;-1.180;2023-03-19T09:21:23;3.67;;;1.20;;
14326;SDS011;7247;53.330;-1.180;2023-03-19T09:23:49;6.30;;;1.50;;
14326;SDS011;7247;53.330;-1.180;2023-03-19T09:26:16;6.43;;;1.50;;
14326;SDS011;7247;53.330;-1.180;2023-03-19T09:28:43;3.93;;;1.47;;
14326;SDS011;7247;53.330;-1.180;2023-03-19T09:31:09;3.97;;;1.30;;
14326;SDS011;7247;53.330;-1.180;2023-03-19T09:33:36;6.70;;;1.60;;
14326;SDS011;7247;53.330;-1.180;2023-03-19T09:36:04;6.07;;;1.40;;
14326;SDS011;7247;53.330;-1.180;2023-03-19T09:38:31;5.40;;;1.70;;
14326;SDS011;7247;53.330;-1.180;2023-03-19T09:41:02;4.33;;;1.20;;
14326;SDS011;7247;53.330;-1.180;2023-03-19T09:43:39;2.77;;;1.30;;
14326;SDS011;7247;53.330;-1.180;2023-03-19T09:46:10;4.67;;;1.30;;
14326;SDS011;7247;53.330;-1.180;2023-03-19T09:48:39;3.60;;;1.67;;
14326;SDS011;7247;53.330;-1.180;2023-03-19T09:51:12;4.63;;;1.20;;
14326;SDS011;7247;53.330;-1.180;2023-03-19T09:53:42;3.43;;;1.20;;
14326;SDS011;7247;53.330;-1.180;2023-03-19T09:56:12;5.43;;;1.23;;
14326;SDS011;7247;53.330;-1.180;2023-03-19T09:58:40;2.63;;;1.17;;
14326;SDS011;7247;53.330;-1.180;2023-03-19T10:01:10;3.57;;;1.20;;
14326;SDS011;7247;53.330;-1.180;2023-03-19T10:03:42;3.87;;;1.30;;
14326;SDS011;7247;53.330;-1.180;2023-03-19T10:06:19;4.00;;;1.23;;
14326;SDS011;7247;53.330;-1.180;2023-03-19T10:08:54;3.93;;;1.30;;
14326;SDS011;7247;53.330;-1.180;2023-03-19T10:11:29;4.03;;;1.17;;
14326;SDS011;7247;53.330;-1.180;2023-03-19T10:14:00;2.93;;;1.20;;
14326;SDS011;7247;53.330;-1.180;2023-03-19T10:16:27;2.93;;;1.10;;
14326;SDS011;7247;53.330;-1.180;2023-03-19T10:18:56;2.13;;;1.20;;
14326;SDS011;7247;53.330;-1.180;2023-03-19T10:21:25;3.20;;;1.10;;
14326;SDS011;7247;53.330;-1.180;2023-03-19T10:23:54;3.10;;;1.00;;
14326;SDS011;7247;53.330;-1.180;2023-03-19T10:26:25;3.03;;;1.10;;
14326;SDS011;7247;53.330;-1.180;2023-03-19T10:28:55;1.43;;;1.00;;
14326;SDS011;7247;53.330;-1.180;2023-03-19T10:31:26;2.13;;;1.20;;
14326;SDS011;7247;53.330;-1.180;2023-03-19T10:33:57;2.83;;;0.90;;
14326;SDS011;7247;53.330;-1.180;2023-03-19T10:36:32;3.30;;;0.90;;
14326;SDS011;7247;53.330;-1.180;2023-03-19T10:38:59;3.83;;;1.00;;
14326;SDS011;7247;53.330;-1.180;2023-03-19T10:41:33;3.10;;;1.10;;
14326;SDS011;7247;53.330;-1.180;2023-03-19T10:44:04;2.83;;;1.00;;
14326;SDS011;7247;53.330;-1.180;2023-03-19T10:46:38;2.37;;;1.10;;
14326;SDS011;7247;53.330;-1.180;2023-03-19T10:49:10;3.67;;;0.93;;
14326;SDS011;7247;53.330;-1.180;2023-03-19T10:51:37;2.47;;;0.90;;
14326;SDS011;7247;53.330;-1.180;2023-03-19T10:54:14;3.03;;;0.83;;
14326;SDS011;7247;53.330;-1.180;2023-03-19T10:56:44;5.70;;;1.20;;
14326;SDS011;7247;53.330;-1.180;2023-03-19T10:59:18;4.27;;;1.10;;
14326;SDS011;7247;53.330;-1.180;2023-03-19T11:01:45;3.53;;;1.27;;
14326;SDS011;7247;53.330;-1.180;2023-03-19T11:04:12;4.13;;;0.90;;
14326;SDS011;7247;53.330;-1.180;2023-03-19T11:06:41;3.00;;;1.03;;
14326;SDS011;7247;53.330;-1.180;2023-03-19T11:09:11;3.10;;;1.20;;
14326;SDS011;7247;53.330;-1.180;2023-03-19T11:11:41;3.97;;;1.10;;
14326;SDS011;7247;53.330;-1.180;2023-03-19T11:14:08;5.50;;;1.00;;
14326;SDS011;7247;53.330;-1.180;2023-03-19T11:16:48;1.43;;;0.83;;
14326;SDS011;7247;53.330;-1.180;2023-03-19T11:19:19;1.37;;;1.00;;
14326;SDS011;7247;53.330;-1.180;2023-03-19T11:21:53;3.00;;;1.00;;
14326;SDS011;7247;53.330;-1.180;2023-03-19T11:24:24;4.20;;;1.03;;
14326;SDS011;7247;53.330;-1.180;2023-03-19T11:26:53;3.37;;;1.20;;
14326;SDS011;7247;53.330;-1.180;2023-03-19T11:29:19;1.83;;;1.00;;
14326;SDS011;7247;53.330;-1.180;2023-03-19T11:31:47;4.23;;;1.30;;
14326;SDS011;7247;53.330;-1.180;2023-03-19T11:34:19;2.13;;;0.90;;
14326;SDS011;7247;53.330;-1.180;2023-03-19T11:36:49;3.03;;;1.27;;
14326;SDS011;7247;53.330;-1.180;2023-03-19T11:39:20;4.57;;;1.10;;
14326;SDS011;7247;53.330;-1.180;2023-03-19T11:41:57;3.77;;;1.10;;
14326;SDS011;7247;53.330;-1.180;2023-03-19T11:44:25;3.10;;;1.13;;
14326;SDS011;7247;53.330;-1.180;2023-03-19T11:46:55;3.50;;;1.00;;
14326;SDS011;7247;53.330;-1.180;2023-03-19T11:52:12;3.30;;;1.00;;
14326;SDS011;7247;53.330;-1.180;2023-03-19T11:54:45;4.73;;;1.33;;
14326;SDS011;7247;53.330;-1.180;2023-03-19T11:57:16;3.73;;;0.90;;
14326;SDS011;7247;53.330;-1.180;2023-03-19T11:59:52;3.90;;;1.10;;
14326;SDS011;7247;53.330;-1.180;2023-03-19T12:02:31;3.87;;;1.10;;
14326;SDS011;7247;53.330;-1.180;2023-03-19T12:07:55;3.17;;;1.10;;
14326;SDS011;7247;53.330;-1.180;2023-03-19T12:10:28;2.47;;;1.00;;
14326;SDS011;7247;53.330;-1.180;2023-03-19T12:13:02;3.93;;;1.13;;
14326;SDS011;7247;53.330;-1.180;2023-03-19T12:15:34;3.47;;;1.03;;
14326;SDS011;7247;53.330;-1.180;2023-03-19T12:18:05;4.70;;;1.30;;
14326;SDS011;7247;53.330;-1.180;2023-03-19T12:20:36;4.93;;;1.30;;
14326;SDS011;7247;53.330;-1.180;2023-03-19T12:23:11;3.47;;;1.23;;
14326;SDS011;7247;53.330;-1.180;2023-03-19T12:28:30;3.23;;;1.20;;
14326;SDS011;7247;53.330;-1.180;2023-03-19T12:31:02;5.63;;;1.33;;
14326;SDS011;7247;53.330;-1.180;2023-03-19T12:33:35;3.17;;;1.30;;
14326;SDS011;7247;53.330;-1.180;2023-03-19T12:36:06;3.73;;;1.40;;
14326;SDS011;7247;53.330;-1.180;2023-03-19T12:38:36;4.80;;;1.20;;
14326;SDS011;7247;53.330;-1.180;2023-03-19T12:41:05;5.30;;;1.40;;
14326;SDS011;7247;53.330;-1.180;2023-03-19T12:43:36;6.10;;;1.43;;
14326;SDS011;7247;53.330;-1.180;2023-03-19T12:46:08;3.07;;;1.50;;
14326;SDS011;7247;53.330;-1.180;2023-03-19T12:48:38;3.03;;;0.97;;
14326;SDS011;7247;53.330;-1.180;2023-03-19T12:51:07;3.30;;;1.50;;
14326;SDS011;7247;53.330;-1.180;2023-03-19T12:53:39;4.43;;;1.37;;
14326;SDS011;7247;53.330;-1.180;2023-03-19T12:56:09;3.13;;;1.10;;
14326;SDS011;7247;53.330;-1.180;2023-03-19T12:58:41;5.23;;;1.43;;
14326;SDS011;7247;53.330;-1.180;2023-03-19T13:01:15;4.17;;;1.37;;
14326;SDS011;7247;53.330;-1.180;2023-03-19T13:03:43;2.60;;;1.50;;
14326;SDS011;7247;53.330;-1.180;2023-03-19T13:06:15;4.93;;;1.87;;
14326;SDS011;7247;53.330;-1.180;2023-03-19T13:08:43;3.43;;;1.40;;
14326;SDS011;7247;53.330;-1.180;2023-03-19T13:11:13;2.90;;;1.47;;
14326;SDS011;7247;53.330;-1.180;2023-03-19T13:13:44;3.97;;;1.30;;
14326;SDS011;7247;53.330;-1.180;2023-03-19T13:16:16;5.03;;;1.40;;
14326;SDS011;7247;53.330;-1.180;2023-03-19T13:18:48;4.00;;;1.50;;
14326;SDS011;7247;53.330;-1.180;2023-03-19T13:21:19;4.43;;;1.77;;
14326;SDS011;7247;53.330;-1.180;2023-03-19T13:23:47;6.23;;;1.57;;
14326;SDS011;7247;53.330;-1.180;2023-03-19T13:26:14;4.37;;;1.43;;
14326;SDS011;7247;53.330;-1.180;2023-03-19T13:28:53;3.30;;;1.37;;
14326;SDS011;7247;53.330;-1.180;2023-03-19T13:31:22;2.90;;;1.40;;
14326;SDS011;7247;53.330;-1.180;2023-03-19T13:33:50;3.90;;;1.43;;
14326;SDS011;7247;53.330;-1.180;2023-03-19T13:36:18;3.43;;;1.40;;
14326;SDS011;7247;53.330;-1.180;2023-03-19T13:38:46;3.03;;;1.37;;
14326;SDS011;7247;53.330;-1.180;2023-03-19T13:44:00;6.93;;;1.40;;
14326;SDS011;7247;53.330;-1.180;2023-03-19T13:46:45;5.00;;;1.50;;
14326;SDS011;7247;53.330;-1.180;2023-03-19T13:49:25;4.00;;;1.30;;
14326;SDS011;7247;53.330;-1.180;2023-03-19T13:51:53;3.73;;;1.27;;
14326;SDS011;7247;53.330;-1.180;2023-03-19T13:54:22;3.63;;;1.33;;
14326;SDS011;7247;53.330;-1.180;2023-03-19T13:57:15;5.03;;;1.50;;
14326;SDS011;7247;53.330;-1.180;2023-03-19T13:59:44;4.47;;;1.60;;
14326;SDS011;7247;53.330;-1.180;2023-03-19T14:04:56;8.20;;;1.87;;
14326;SDS011;7247;53.330;-1.180;2023-03-19T14:07:24;4.70;;;1.87;;
14326;SDS011;7247;53.330;-1.180;2023-03-19T14:10:01;4.23;;;1.60;;
14326;SDS011;7247;53.330;-1.180;2023-03-19T14:12:30;6.93;;;1.40;;
14326;SDS011;7247;53.330;-1.180;2023-03-19T14:14:59;3.30;;;1.40;;
14326;SDS011;7247;53.330;-1.180;2023-03-19T14:17:30;4.47;;;1.63;;
14326;SDS011;7247;53.330;-1.180;2023-03-19T14:19:59;4.73;;;1.77;;
14326;SDS011;7247;53.330;-1.180;2023-03-19T14:22:31;2.60;;;1.40;;
14326;SDS011;7247;53.330;-1.180;2023-03-19T14:25:02;7.70;;;1.60;;
14326;SDS011;7247;53.330;-1.180;2023-03-19T14:27:29;8.07;;;1.97;;
14326;SDS011;7247;53.330;-1.180;2023-03-19T14:29:57;4.47;;;1.87;;
14326;SDS011;7247;53.330;-1.180;2023-03-19T14:32:27;4.50;;;1.70;;
14326;SDS011;7247;53.330;-1.180;2023-03-19T14:34:57;4.43;;;1.50;;
14326;SDS011;7247;53.330;-1.180;2023-03-19T14:37:24;2.97;;;1.47;;
14326;SDS011;7247;53.330;-1.180;2023-03-19T14:39:53;4.57;;;1.47;;
14326;SDS011;7247;53.330;-1.180;2023-03-19T14:42:21;3.90;;;1.37;;
14326;SDS011;7247;53.330;-1.180;2023-03-19T14:45:06;3.27;;;1.20;;
14326;SDS011;7247;53.330;-1.180;2023-03-19T14:47:47;4.30;;;1.30;;
14326;SDS011;7247;53.330;-1.180;2023-03-19T14:53:00;4.83;;;1.47;;
14326;SDS011;7247;53.330;-1.180;2023-03-19T14:55:31;3.63;;;1.40;;
14326;SDS011;7247;53.330;-1.180;2023-03-19T14:57:59;6.90;;;4.43;;
14326;SDS011;7247;53.330;-1.180;2023-03-19T15:00:25;8.83;;;3.73;;
14326;SDS011;7247;53.330;-1.180;2023-03-19T15:02:54;6.63;;;2.10;;
14326;SDS011;7247;53.330;-1.180;2023-03-19T15:05:21;5.57;;;1.90;;
14326;SDS011;7247;53.330;-1.180;2023-03-19T15:07:52;4.67;;;2.30;;